sensor_id;sensor_type;location;lat;lon;timestamp;temperature;humidity
5011;DHT22;2524;54.364;10.072;2023-01-19T00:01:24;1.70;99.90
5011;DHT22;2524;54.364;10.072;2023-01-19T00:03:50;1.60;99.90
5011;DHT22;2524;54.364;10.072;2023-01-19T00:06:16;1.70;99.90
5011;DHT22;2524;54.364;10.072;2023-01-19T00:08:42;1.70;99.90
5011;DHT22;2524;54.364;10.072;2023-01-19T00:11:13;1.70;99.90
5011;DHT22;2524;54.364;10.072;2023-01-19T00:13:39;1.70;99.90
5011;DHT22;2524;54.364;10.072;2023-01-19T00:16:06;1.70;99.90
5011;DHT22;2524;54.364;10.072;2023-01-19T00:18:32;1.80;99.90
5011;DHT22;2524;54.364;10.072;2023-01-19T00:20:58;1.80;99.90
5011;DHT22;2524;54.364;10.072;2023-01-19T00:23:25;1.80;99.90
5011;DHT22;2524;54.364;10.072;2023-01-19T00:25:52;1.90;99.90
5011;DHT22;2524;54.364;10.072;2023-01-19T00:28:18;1.90;99.90
5011;DHT22;2524;54.364;10.072;2023-01-19T00:31:17;1.80;99.90
5011;DHT22;2524;54.364;10.072;2023-01-19T00:34:04;1.80;99.90
5011;DHT22;2524;54.364;10.072;2023-01-19T00:36:30;1.80;99.90
5011;DHT22;2524;54.364;10.072;2023-01-19T00:38:56;1.90;99.90
5011;DHT22;2524;54.364;10.072;2023-01-19T00:41:21;1.90;99.90
5011;DHT22;2524;54.364;10.072;2023-01-19T00:44:07;1.90;99.90
5011;DHT22;2524;54.364;10.072;2023-01-19T00:46:33;1.90;99.90
5011;DHT22;2524;54.364;10.072;2023-01-19T00:48:58;2.00;99.90
5011;DHT22;2524;54.364;10.072;2023-01-19T00:51:24;2.00;99.90
5011;DHT22;2524;54.364;10.072;2023-01-19T00:53:50;2.00;99.90
5011;DHT22;2524;54.364;10.072;2023-01-19T00:56:16;2.00;99.90
5011;DHT22;2524;54.364;10.072;2023-01-19T00:58:42;2.00;99.90
5011;DHT22;2524;54.364;10.072;2023-01-19T01:01:08;2.00;99.90
5011;DHT22;2524;54.364;10.072;2023-01-19T01:03:34;2.10;99.90
5011;DHT22;2524;54.364;10.072;2023-01-19T01:05:59;2.10;99.90
5011;DHT22;2524;54.364;10.072;2023-01-19T01:08:25;2.10;99.90
5011;DHT22;2524;54.364;10.072;2023-01-19T01:10:51;2.20;99.90
5011;DHT22;2524;54.364;10.072;2023-01-19T01:13:16;2.20;99.90
5011;DHT22;2524;54.364;10.072;2023-01-19T01:15:42;2.10;99.90
5011;DHT22;2524;54.364;10.072;2023-01-19T01:18:08;2.20;99.90
5011;DHT22;2524;54.364;10.072;2023-01-19T01:20:34;2.20;99.90
5011;DHT22;2524;54.364;10.072;2023-01-19T01:23:01;2.20;99.90
5011;DHT22;2524;54.364;10.072;2023-01-19T01:25:27;2.20;99.90
5011;DHT22;2524;54.364;10.072;2023-01-19T01:27:55;2.30;99.90
5011;DHT22;2524;54.364;10.072;2023-01-19T01:30:21;2.30;99.90
5011;DHT22;2524;54.364;10.072;2023-01-19T01:32:47;2.30;99.90
5011;DHT22;2524;54.364;10.072;2023-01-19T01:35:14;2.30;99.90
5011;DHT22;2524;54.364;10.072;2023-01-19T01:37:39;2.30;99.90
5011;DHT22;2524;54.364;10.072;2023-01-19T01:40:06;2.30;99.90
5011;DHT22;2524;54.364;10.072;2023-01-19T01:42:33;2.30;99.90
5011;DHT22;2524;54.364;10.072;2023-01-19T01:45:01;2.30;99.90
5011;DHT22;2524;54.364;10.072;2023-01-19T01:47:31;2.40;99.90
5011;DHT22;2524;54.364;10.072;2023-01-19T01:50:07;2.30;99.90
5011;DHT22;2524;54.364;10.072;2023-01-19T01:52:36;2.40;99.90
5011;DHT22;2524;54.364;10.072;2023-01-19T01:55:04;2.40;99.90
5011;DHT22;2524;54.364;10.072;2023-01-19T01:57:38;2.40;99.90
5011;DHT22;2524;54.364;10.072;2023-01-19T02:00:06;2.40;99.90
5011;DHT22;2524;54.364;10.072;2023-01-19T02:02:34;2.40;99.90
5011;DHT22;2524;54.364;10.072;2023-01-19T02:05:31;2.40;99.90
5011;DHT22;2524;54.364;10.072;2023-01-19T02:11:05;2.50;99.90
5011;DHT22;2524;54.364;10.072;2023-01-19T02:13:49;2.40;99.90
5011;DHT22;2524;54.364;10.072;2023-01-19T02:16:16;2.50;99.90
5011;DHT22;2524;54.364;10.072;2023-01-19T02:18:42;2.50;99.90
5011;DHT22;2524;54.364;10.072;2023-01-19T02:21:35;2.50;99.90
5011;DHT22;2524;54.364;10.072;2023-01-19T02:24:01;2.50;99.90
5011;DHT22;2524;54.364;10.072;2023-01-19T02:26:44;2.50;99.90
5011;DHT22;2524;54.364;10.072;2023-01-19T02:29:15;2.50;99.90
5011;DHT22;2524;54.364;10.072;2023-01-19T02:31:42;2.60;99.90
5011;DHT22;2524;54.364;10.072;2023-01-19T02:34:11;2.60;99.90
5011;DHT22;2524;54.364;10.072;2023-01-19T02:36:51;2.60;99.90
5011;DHT22;2524;54.364;10.072;2023-01-19T02:39:21;2.60;99.90
5011;DHT22;2524;54.364;10.072;2023-01-19T02:41:54;2.70;99.90
5011;DHT22;2524;54.364;10.072;2023-01-19T02:44:22;2.60;99.90
5011;DHT22;2524;54.364;10.072;2023-01-19T02:46:48;2.60;99.90
5011;DHT22;2524;54.364;10.072;2023-01-19T02:49:14;2.60;99.90
5011;DHT22;2524;54.364;10.072;2023-01-19T02:51:42;2.60;99.90
5011;DHT22;2524;54.364;10.072;2023-01-19T02:54:40;2.60;99.90
5011;DHT22;2524;54.364;10.072;2023-01-19T02:57:39;2.60;99.90
5011;DHT22;2524;54.364;10.072;2023-01-19T03:00:12;2.60;99.90
5011;DHT22;2524;54.364;10.072;2023-01-19T03:06:10;2.60;99.90
5011;DHT22;2524;54.364;10.072;2023-01-19T03:08:43;2.60;99.90
5011;DHT22;2524;54.364;10.072;2023-01-19T03:11:12;2.70;99.90
5011;DHT22;2524;54.364;10.072;2023-01-19T03:13:55;2.60;99.90
5011;DHT22;2524;54.364;10.072;2023-01-19T03:16:29;2.60;99.90
5011;DHT22;2524;54.364;10.072;2023-01-19T03:19:22;2.60;99.90
5011;DHT22;2524;54.364;10.072;2023-01-19T03:21:52;2.60;99.90
5011;DHT22;2524;54.364;10.072;2023-01-19T03:24:20;2.70;99.90
5011;DHT22;2524;54.364;10.072;2023-01-19T03:26:52;2.60;99.90
5011;DHT22;2524;54.364;10.072;2023-01-19T03:29:25;2.70;99.90
5011;DHT22;2524;54.364;10.072;2023-01-19T03:31:52;2.70;99.90
5011;DHT22;2524;54.364;10.072;2023-01-19T03:34:21;2.70;99.90
5011;DHT22;2524;54.364;10.072;2023-01-19T03:36:51;2.70;99.90
5011;DHT22;2524;54.364;10.072;2023-01-19T03:39:22;2.70;99.90
5011;DHT22;2524;54.364;10.072;2023-01-19T03:42:00;2.70;99.90
5011;DHT22;2524;54.364;10.072;2023-01-19T03:44:28;2.70;99.90
5011;DHT22;2524;54.364;10.072;2023-01-19T03:46:57;2.70;99.90
5011;DHT22;2524;54.364;10.072;2023-01-19T03:49:24;2.70;99.90
5011;DHT22;2524;54.364;10.072;2023-01-19T03:51:49;2.70;99.90
5011;DHT22;2524;54.364;10.072;2023-01-19T03:54:16;2.70;99.90
5011;DHT22;2524;54.364;10.072;2023-01-19T03:56:41;2.70;99.90
5011;DHT22;2524;54.364;10.072;2023-01-19T03:59:08;2.70;99.90
5011;DHT22;2524;54.364;10.072;2023-01-19T04:01:34;2.80;99.90
5011;DHT22;2524;54.364;10.072;2023-01-19T04:04:00;2.70;99.90
5011;DHT22;2524;54.364;10.072;2023-01-19T04:06:25;2.70;99.90
5011;DHT22;2524;54.364;10.072;2023-01-19T04:08:51;2.70;99.90
5011;DHT22;2524;54.364;10.072;2023-01-19T04:11:17;2.70;99.90
5011;DHT22;2524;54.364;10.072;2023-01-19T04:13:43;2.70;99.90
5011;DHT22;2524;54.364;10.072;2023-01-19T04:16:10;2.80;99.90
5011;DHT22;2524;54.364;10.072;2023-01-19T04:18:36;2.80;99.90
5011;DHT22;2524;54.364;10.072;2023-01-19T04:21:04;2.80;99.90
5011;DHT22;2524;54.364;10.072;2023-01-19T04:23:30;2.80;99.90
5011;DHT22;2524;54.364;10.072;2023-01-19T04:25:57;2.80;99.90
5011;DHT22;2524;54.364;10.072;2023-01-19T04:28:23;2.80;99.90
5011;DHT22;2524;54.364;10.072;2023-01-19T04:30:49;2.80;99.90
5011;DHT22;2524;54.364;10.072;2023-01-19T04:33:17;2.80;99.90
5011;DHT22;2524;54.364;10.072;2023-01-19T04:35:44;2.80;99.90
5011;DHT22;2524;54.364;10.072;2023-01-19T04:38:10;2.80;99.90
5011;DHT22;2524;54.364;10.072;2023-01-19T04:40:35;2.90;99.90
5011;DHT22;2524;54.364;10.072;2023-01-19T04:43:01;2.80;99.90
5011;DHT22;2524;54.364;10.072;2023-01-19T04:45:26;2.90;99.90
5011;DHT22;2524;54.364;10.072;2023-01-19T04:47:52;2.90;99.90
5011;DHT22;2524;54.364;10.072;2023-01-19T04:50:18;2.90;99.90
5011;DHT22;2524;54.364;10.072;2023-01-19T04:52:44;2.90;99.90
5011;DHT22;2524;54.364;10.072;2023-01-19T04:55:10;2.90;99.90
5011;DHT22;2524;54.364;10.072;2023-01-19T04:57:35;2.90;99.90
5011;DHT22;2524;54.364;10.072;2023-01-19T05:00:02;2.90;99.90
5011;DHT22;2524;54.364;10.072;2023-01-19T05:02:28;3.00;99.90
5011;DHT22;2524;54.364;10.072;2023-01-19T05:04:54;2.90;99.90
5011;DHT22;2524;54.364;10.072;2023-01-19T05:07:19;2.90;99.90
5011;DHT22;2524;54.364;10.072;2023-01-19T05:09:45;2.90;99.90
5011;DHT22;2524;54.364;10.072;2023-01-19T05:12:11;2.90;99.90
5011;DHT22;2524;54.364;10.072;2023-01-19T05:14:36;2.90;99.90
5011;DHT22;2524;54.364;10.072;2023-01-19T05:17:02;3.00;99.90
5011;DHT22;2524;54.364;10.072;2023-01-19T05:19:28;3.00;99.90
5011;DHT22;2524;54.364;10.072;2023-01-19T05:21:53;2.90;99.90
5011;DHT22;2524;54.364;10.072;2023-01-19T05:24:19;3.00;99.90
5011;DHT22;2524;54.364;10.072;2023-01-19T05:26:45;2.90;99.90
5011;DHT22;2524;54.364;10.072;2023-01-19T05:29:11;3.00;99.90
5011;DHT22;2524;54.364;10.072;2023-01-19T05:31:36;2.90;99.90
5011;DHT22;2524;54.364;10.072;2023-01-19T05:34:03;3.00;99.90
5011;DHT22;2524;54.364;10.072;2023-01-19T05:36:28;3.00;99.90
5011;DHT22;2524;54.364;10.072;2023-01-19T05:38:54;3.00;99.90
5011;DHT22;2524;54.364;10.072;2023-01-19T05:41:19;2.90;99.90
5011;DHT22;2524;54.364;10.072;2023-01-19T05:43:48;2.90;99.90
5011;DHT22;2524;54.364;10.072;2023-01-19T05:46:13;2.90;99.90
5011;DHT22;2524;54.364;10.072;2023-01-19T05:48:39;2.90;99.90
5011;DHT22;2524;54.364;10.072;2023-01-19T05:51:05;2.90;99.90
5011;DHT22;2524;54.364;10.072;2023-01-19T05:53:30;2.90;99.90
5011;DHT22;2524;54.364;10.072;2023-01-19T05:56:04;2.90;99.90
5011;DHT22;2524;54.364;10.072;2023-01-19T05:58:31;2.90;99.90
5011;DHT22;2524;54.364;10.072;2023-01-19T06:01:25;2.90;99.90
5011;DHT22;2524;54.364;10.072;2023-01-19T06:03:59;2.80;99.90
5011;DHT22;2524;54.364;10.072;2023-01-19T06:06:28;2.80;99.90
5011;DHT22;2524;54.364;10.072;2023-01-19T06:08:54;2.90;99.90
5011;DHT22;2524;54.364;10.072;2023-01-19T06:11:20;2.80;99.90
5011;DHT22;2524;54.364;10.072;2023-01-19T06:13:46;2.70;99.90
5011;DHT22;2524;54.364;10.072;2023-01-19T06:16:12;2.70;99.90
5011;DHT22;2524;54.364;10.072;2023-01-19T06:18:38;2.70;99.90
5011;DHT22;2524;54.364;10.072;2023-01-19T06:21:06;2.70;99.90
5011;DHT22;2524;54.364;10.072;2023-01-19T06:23:33;2.70;99.90
5011;DHT22;2524;54.364;10.072;2023-01-19T06:25:58;2.70;99.90
5011;DHT22;2524;54.364;10.072;2023-01-19T06:28:24;2.70;99.90
5011;DHT22;2524;54.364;10.072;2023-01-19T06:30:52;2.70;99.90
5011;DHT22;2524;54.364;10.072;2023-01-19T06:33:18;2.80;99.90
5011;DHT22;2524;54.364;10.072;2023-01-19T06:35:45;2.70;99.90
5011;DHT22;2524;54.364;10.072;2023-01-19T06:38:11;2.70;99.90
5011;DHT22;2524;54.364;10.072;2023-01-19T06:40:38;2.70;99.90
5011;DHT22;2524;54.364;10.072;2023-01-19T06:43:04;2.80;99.90
5011;DHT22;2524;54.364;10.072;2023-01-19T06:45:30;2.80;99.90
5011;DHT22;2524;54.364;10.072;2023-01-19T06:47:58;2.70;99.90
5011;DHT22;2524;54.364;10.072;2023-01-19T06:50:26;2.80;99.90
5011;DHT22;2524;54.364;10.072;2023-01-19T06:52:52;2.80;99.90
5011;DHT22;2524;54.364;10.072;2023-01-19T06:55:18;2.80;99.90
5011;DHT22;2524;54.364;10.072;2023-01-19T06:57:43;2.80;99.90
5011;DHT22;2524;54.364;10.072;2023-01-19T07:00:10;2.80;99.90
5011;DHT22;2524;54.364;10.072;2023-01-19T07:02:40;2.80;99.90
5011;DHT22;2524;54.364;10.072;2023-01-19T07:05:07;2.80;99.90
5011;DHT22;2524;54.364;10.072;2023-01-19T07:07:33;2.80;99.90
5011;DHT22;2524;54.364;10.072;2023-01-19T07:09:59;2.80;99.90
5011;DHT22;2524;54.364;10.072;2023-01-19T07:12:25;2.80;99.90
5011;DHT22;2524;54.364;10.072;2023-01-19T07:14:50;2.80;99.90
5011;DHT22;2524;54.364;10.072;2023-01-19T07:17:17;2.80;99.90
5011;DHT22;2524;54.364;10.072;2023-01-19T07:19:42;2.80;99.90
5011;DHT22;2524;54.364;10.072;2023-01-19T07:22:08;2.80;99.90
5011;DHT22;2524;54.364;10.072;2023-01-19T07:24:33;2.80;99.90
5011;DHT22;2524;54.364;10.072;2023-01-19T07:26:59;2.80;99.90
5011;DHT22;2524;54.364;10.072;2023-01-19T07:29:26;2.80;99.90
5011;DHT22;2524;54.364;10.072;2023-01-19T07:31:51;2.80;99.90
5011;DHT22;2524;54.364;10.072;2023-01-19T07:34:19;2.80;99.90
5011;DHT22;2524;54.364;10.072;2023-01-19T07:36:45;2.70;99.90
5011;DHT22;2524;54.364;10.072;2023-01-19T07:39:11;2.80;99.90
5011;DHT22;2524;54.364;10.072;2023-01-19T07:41:37;2.80;99.90
5011;DHT22;2524;54.364;10.072;2023-01-19T07:44:03;2.80;99.90
5011;DHT22;2524;54.364;10.072;2023-01-19T07:46:28;2.80;99.90
5011;DHT22;2524;54.364;10.072;2023-01-19T07:48:54;2.80;99.90
5011;DHT22;2524;54.364;10.072;2023-01-19T07:51:19;2.80;99.90
5011;DHT22;2524;54.364;10.072;2023-01-19T07:53:45;2.70;99.90
5011;DHT22;2524;54.364;10.072;2023-01-19T07:56:11;2.80;99.90
5011;DHT22;2524;54.364;10.072;2023-01-19T07:58:37;2.80;99.90
5011;DHT22;2524;54.364;10.072;2023-01-19T08:01:07;2.80;99.90
5011;DHT22;2524;54.364;10.072;2023-01-19T08:03:34;2.80;99.90
5011;DHT22;2524;54.364;10.072;2023-01-19T08:05:59;2.80;99.90
5011;DHT22;2524;54.364;10.072;2023-01-19T08:08:28;2.80;99.90
5011;DHT22;2524;54.364;10.072;2023-01-19T08:10:54;2.80;99.90
5011;DHT22;2524;54.364;10.072;2023-01-19T08:13:19;2.80;99.90
5011;DHT22;2524;54.364;10.072;2023-01-19T08:15:49;2.80;99.90
5011;DHT22;2524;54.364;10.072;2023-01-19T08:18:15;2.80;99.90
5011;DHT22;2524;54.364;10.072;2023-01-19T08:20:41;2.80;99.90
5011;DHT22;2524;54.364;10.072;2023-01-19T08:23:06;2.80;99.90
5011;DHT22;2524;54.364;10.072;2023-01-19T08:25:37;2.80;99.90
5011;DHT22;2524;54.364;10.072;2023-01-19T08:28:04;2.70;99.90
5011;DHT22;2524;54.364;10.072;2023-01-19T08:30:31;2.70;99.90
5011;DHT22;2524;54.364;10.072;2023-01-19T08:32:57;2.70;99.90
5011;DHT22;2524;54.364;10.072;2023-01-19T08:35:32;2.80;99.90
5011;DHT22;2524;54.364;10.072;2023-01-19T08:37:59;2.70;99.90
5011;DHT22;2524;54.364;10.072;2023-01-19T08:40:29;2.70;99.90
5011;DHT22;2524;54.364;10.072;2023-01-19T08:42:58;2.80;99.90
5011;DHT22;2524;54.364;10.072;2023-01-19T08:45:32;2.80;99.90
5011;DHT22;2524;54.364;10.072;2023-01-19T08:47:58;2.80;99.90
5011;DHT22;2524;54.364;10.072;2023-01-19T08:50:27;2.80;99.90
5011;DHT22;2524;54.364;10.072;2023-01-19T08:52:57;2.80;99.90
5011;DHT22;2524;54.364;10.072;2023-01-19T08:55:24;2.80;99.90
5011;DHT22;2524;54.364;10.072;2023-01-19T08:57:55;2.80;99.90
5011;DHT22;2524;54.364;10.072;2023-01-19T09:00:24;2.80;99.90
5011;DHT22;2524;54.364;10.072;2023-01-19T09:02:52;2.90;99.90
5011;DHT22;2524;54.364;10.072;2023-01-19T09:05:18;2.80;99.90
5011;DHT22;2524;54.364;10.072;2023-01-19T09:07:45;2.90;99.90
5011;DHT22;2524;54.364;10.072;2023-01-19T09:10:12;2.90;99.90
5011;DHT22;2524;54.364;10.072;2023-01-19T09:12:38;2.90;99.90
5011;DHT22;2524;54.364;10.072;2023-01-19T09:15:05;2.90;99.90
5011;DHT22;2524;54.364;10.072;2023-01-19T09:17:31;2.90;99.90
5011;DHT22;2524;54.364;10.072;2023-01-19T09:19:56;2.90;99.90
5011;DHT22;2524;54.364;10.072;2023-01-19T09:22:23;2.90;99.90
5011;DHT22;2524;54.364;10.072;2023-01-19T09:24:48;3.00;99.90
5011;DHT22;2524;54.364;10.072;2023-01-19T09:27:14;2.90;99.90
5011;DHT22;2524;54.364;10.072;2023-01-19T09:29:39;2.90;99.90
5011;DHT22;2524;54.364;10.072;2023-01-19T09:32:05;3.00;99.90
5011;DHT22;2524;54.364;10.072;2023-01-19T09:34:31;2.90;99.90
5011;DHT22;2524;54.364;10.072;2023-01-19T09:36:57;3.10;99.90
5011;DHT22;2524;54.364;10.072;2023-01-19T09:39:22;3.00;99.90
5011;DHT22;2524;54.364;10.072;2023-01-19T09:42:00;3.00;99.90
5011;DHT22;2524;54.364;10.072;2023-01-19T09:44:33;3.00;99.90
5011;DHT22;2524;54.364;10.072;2023-01-19T09:47:02;3.00;99.90
5011;DHT22;2524;54.364;10.072;2023-01-19T09:49:39;3.00;99.90
5011;DHT22;2524;54.364;10.072;2023-01-19T09:52:13;3.10;99.90
5011;DHT22;2524;54.364;10.072;2023-01-19T09:54:51;3.10;99.90
5011;DHT22;2524;54.364;10.072;2023-01-19T09:57:18;3.20;99.90
5011;DHT22;2524;54.364;10.072;2023-01-19T09:59:43;3.20;99.90
5011;DHT22;2524;54.364;10.072;2023-01-19T10:02:44;3.20;99.90
5011;DHT22;2524;54.364;10.072;2023-01-19T10:10:22;3.30;99.90
5011;DHT22;2524;54.364;10.072;2023-01-19T10:15:47;3.30;99.90
5011;DHT22;2524;54.364;10.072;2023-01-19T10:18:25;3.30;99.90
5011;DHT22;2524;54.364;10.072;2023-01-19T10:21:02;3.30;99.90
5011;DHT22;2524;54.364;10.072;2023-01-19T10:25:55;3.40;99.90
5011;DHT22;2524;54.364;10.072;2023-01-19T10:28:24;3.40;99.90
5011;DHT22;2524;54.364;10.072;2023-01-19T10:30:53;3.40;99.90
5011;DHT22;2524;54.364;10.072;2023-01-19T10:33:19;3.40;99.90
5011;DHT22;2524;54.364;10.072;2023-01-19T10:35:45;3.40;99.90
5011;DHT22;2524;54.364;10.072;2023-01-19T10:38:14;3.40;99.90
5011;DHT22;2524;54.364;10.072;2023-01-19T10:40:56;3.40;99.90
5011;DHT22;2524;54.364;10.072;2023-01-19T10:45:59;3.50;99.90
5011;DHT22;2524;54.364;10.072;2023-01-19T10:48:25;3.50;99.90
5011;DHT22;2524;54.364;10.072;2023-01-19T10:51:01;3.50;99.90
5011;DHT22;2524;54.364;10.072;2023-01-19T10:53:27;3.50;99.90
5011;DHT22;2524;54.364;10.072;2023-01-19T10:56:33;3.50;99.90
5011;DHT22;2524;54.364;10.072;2023-01-19T10:59:00;3.50;99.90
5011;DHT22;2524;54.364;10.072;2023-01-19T11:01:28;3.50;99.90
5011;DHT22;2524;54.364;10.072;2023-01-19T11:03:55;3.50;99.90
5011;DHT22;2524;54.364;10.072;2023-01-19T11:06:29;3.50;99.90
5011;DHT22;2524;54.364;10.072;2023-01-19T11:09:18;3.50;99.90
5011;DHT22;2524;54.364;10.072;2023-01-19T11:11:49;3.50;99.90
5011;DHT22;2524;54.364;10.072;2023-01-19T11:14:21;3.50;99.90
5011;DHT22;2524;54.364;10.072;2023-01-19T11:16:53;3.50;99.90
5011;DHT22;2524;54.364;10.072;2023-01-19T11:19:24;3.50;99.90
5011;DHT22;2524;54.364;10.072;2023-01-19T11:21:50;3.50;99.90
5011;DHT22;2524;54.364;10.072;2023-01-19T11:24:16;3.50;99.90
5011;DHT22;2524;54.364;10.072;2023-01-19T11:26:48;3.50;99.90
5011;DHT22;2524;54.364;10.072;2023-01-19T11:29:25;3.50;99.90
5011;DHT22;2524;54.364;10.072;2023-01-19T11:31:53;3.50;99.90
5011;DHT22;2524;54.364;10.072;2023-01-19T11:34:33;3.60;99.90
5011;DHT22;2524;54.364;10.072;2023-01-19T11:37:02;3.60;99.90
5011;DHT22;2524;54.364;10.072;2023-01-19T11:39:30;3.50;99.90
5011;DHT22;2524;54.364;10.072;2023-01-19T11:41:59;3.50;99.90
5011;DHT22;2524;54.364;10.072;2023-01-19T11:44:42;3.50;99.90
5011;DHT22;2524;54.364;10.072;2023-01-19T11:47:22;3.50;99.90
5011;DHT22;2524;54.364;10.072;2023-01-19T11:50:32;3.50;99.90
5011;DHT22;2524;54.364;10.072;2023-01-19T11:53:24;3.40;99.90
5011;DHT22;2524;54.364;10.072;2023-01-19T11:55:54;3.40;99.90
5011;DHT22;2524;54.364;10.072;2023-01-19T11:58:20;3.40;99.90
5011;DHT22;2524;54.364;10.072;2023-01-19T12:00:57;3.50;99.90
5011;DHT22;2524;54.364;10.072;2023-01-19T12:03:32;3.40;99.90
5011;DHT22;2524;54.364;10.072;2023-01-19T12:06:18;3.40;99.90
5011;DHT22;2524;54.364;10.072;2023-01-19T12:08:53;3.40;99.90
5011;DHT22;2524;54.364;10.072;2023-01-19T12:11:36;3.40;99.90
5011;DHT22;2524;54.364;10.072;2023-01-19T12:14:03;3.50;99.90
5011;DHT22;2524;54.364;10.072;2023-01-19T12:16:34;3.50;99.90
5011;DHT22;2524;54.364;10.072;2023-01-19T12:19:09;3.50;99.90
5011;DHT22;2524;54.364;10.072;2023-01-19T12:21:37;3.50;99.90
5011;DHT22;2524;54.364;10.072;2023-01-19T12:24:17;3.50;99.90
5011;DHT22;2524;54.364;10.072;2023-01-19T12:26:56;3.50;99.90
5011;DHT22;2524;54.364;10.072;2023-01-19T12:29:26;3.50;99.90
5011;DHT22;2524;54.364;10.072;2023-01-19T12:34:41;3.60;99.90
5011;DHT22;2524;54.364;10.072;2023-01-19T12:39:53;3.60;99.90
5011;DHT22;2524;54.364;10.072;2023-01-19T12:42:20;3.50;99.90
5011;DHT22;2524;54.364;10.072;2023-01-19T12:44:47;3.50;99.90
5011;DHT22;2524;54.364;10.072;2023-01-19T12:49:54;3.60;99.90
5011;DHT22;2524;54.364;10.072;2023-01-19T13:01:16;3.60;99.90
5011;DHT22;2524;54.364;10.072;2023-01-19T13:09:37;3.60;99.90
5011;DHT22;2524;54.364;10.072;2023-01-19T13:14:39;3.70;99.90
5011;DHT22;2524;54.364;10.072;2023-01-19T13:19:46;3.70;99.90
5011;DHT22;2524;54.364;10.072;2023-01-19T13:25:11;3.80;99.90
5011;DHT22;2524;54.364;10.072;2023-01-19T13:27:37;3.80;99.90
5011;DHT22;2524;54.364;10.072;2023-01-19T13:30:11;3.90;99.90
5011;DHT22;2524;54.364;10.072;2023-01-19T13:32:40;3.90;99.90
5011;DHT22;2524;54.364;10.072;2023-01-19T13:35:13;3.90;99.90
5011;DHT22;2524;54.364;10.072;2023-01-19T13:37:42;4.00;99.90
5011;DHT22;2524;54.364;10.072;2023-01-19T13:40:23;4.00;99.90
5011;DHT22;2524;54.364;10.072;2023-01-19T13:42:51;4.00;99.90
5011;DHT22;2524;54.364;10.072;2023-01-19T13:45:30;4.00;99.90
5011;DHT22;2524;54.364;10.072;2023-01-19T13:47:59;4.10;99.90
5011;DHT22;2524;54.364;10.072;2023-01-19T13:50:32;4.30;99.90
5011;DHT22;2524;54.364;10.072;2023-01-19T13:52:58;4.30;99.90
5011;DHT22;2524;54.364;10.072;2023-01-19T13:55:28;4.40;99.90
5011;DHT22;2524;54.364;10.072;2023-01-19T13:57:55;4.40;99.90
5011;DHT22;2524;54.364;10.072;2023-01-19T14:00:23;4.40;99.90
5011;DHT22;2524;54.364;10.072;2023-01-19T14:03:15;4.40;99.90
5011;DHT22;2524;54.364;10.072;2023-01-19T14:05:44;4.40;99.90
5011;DHT22;2524;54.364;10.072;2023-01-19T14:10:38;4.30;99.90
5011;DHT22;2524;54.364;10.072;2023-01-19T14:13:11;4.30;99.90
5011;DHT22;2524;54.364;10.072;2023-01-19T14:15:37;4.30;99.90
5011;DHT22;2524;54.364;10.072;2023-01-19T14:21:06;4.30;99.90
5011;DHT22;2524;54.364;10.072;2023-01-19T14:23:46;4.30;99.90
5011;DHT22;2524;54.364;10.072;2023-01-19T14:29:36;4.30;99.90
5011;DHT22;2524;54.364;10.072;2023-01-19T14:32:17;4.20;99.90
5011;DHT22;2524;54.364;10.072;2023-01-19T14:37:36;4.20;99.90
5011;DHT22;2524;54.364;10.072;2023-01-19T14:42:53;4.20;99.90
5011;DHT22;2524;54.364;10.072;2023-01-19T14:45:29;4.20;99.90
5011;DHT22;2524;54.364;10.072;2023-01-19T14:48:01;4.20;99.90
5011;DHT22;2524;54.364;10.072;2023-01-19T14:50:36;4.20;99.90
5011;DHT22;2524;54.364;10.072;2023-01-19T14:53:28;4.20;99.90
5011;DHT22;2524;54.364;10.072;2023-01-19T14:56:00;4.10;99.90
5011;DHT22;2524;54.364;10.072;2023-01-19T14:58:30;4.20;99.90
5011;DHT22;2524;54.364;10.072;2023-01-19T15:00:57;4.10;99.90
5011;DHT22;2524;54.364;10.072;2023-01-19T15:03:24;4.20;99.90
5011;DHT22;2524;54.364;10.072;2023-01-19T15:05:51;4.20;99.90
5011;DHT22;2524;54.364;10.072;2023-01-19T15:08:21;4.20;99.90
5011;DHT22;2524;54.364;10.072;2023-01-19T15:10:49;4.20;99.90
5011;DHT22;2524;54.364;10.072;2023-01-19T15:13:18;4.20;99.90
5011;DHT22;2524;54.364;10.072;2023-01-19T15:15:45;4.20;99.90
5011;DHT22;2524;54.364;10.072;2023-01-19T15:18:15;4.20;99.90
5011;DHT22;2524;54.364;10.072;2023-01-19T15:20:41;4.20;99.90
5011;DHT22;2524;54.364;10.072;2023-01-19T15:23:10;4.10;99.90
5011;DHT22;2524;54.364;10.072;2023-01-19T15:25:35;4.20;99.90
5011;DHT22;2524;54.364;10.072;2023-01-19T15:28:12;4.10;99.90
5011;DHT22;2524;54.364;10.072;2023-01-19T15:30:38;4.10;99.90
5011;DHT22;2524;54.364;10.072;2023-01-19T15:33:03;4.10;99.90
5011;DHT22;2524;54.364;10.072;2023-01-19T15:35:29;4.10;99.90
5011;DHT22;2524;54.364;10.072;2023-01-19T15:37:55;4.10;99.90
5011;DHT22;2524;54.364;10.072;2023-01-19T15:40:21;4.20;99.90
5011;DHT22;2524;54.364;10.072;2023-01-19T15:42:48;4.10;99.90
5011;DHT22;2524;54.364;10.072;2023-01-19T15:48:11;4.10;99.90
5011;DHT22;2524;54.364;10.072;2023-01-19T15:50:40;4.10;99.90
5011;DHT22;2524;54.364;10.072;2023-01-19T15:53:09;4.00;99.90
5011;DHT22;2524;54.364;10.072;2023-01-19T15:55:36;4.00;99.90
5011;DHT22;2524;54.364;10.072;2023-01-19T15:58:01;4.00;99.90
5011;DHT22;2524;54.364;10.072;2023-01-19T16:00:28;4.10;99.90
5011;DHT22;2524;54.364;10.072;2023-01-19T16:02:54;4.00;99.90
5011;DHT22;2524;54.364;10.072;2023-01-19T16:05:23;4.10;99.90
5011;DHT22;2524;54.364;10.072;2023-01-19T16:07:49;4.00;99.90
5011;DHT22;2524;54.364;10.072;2023-01-19T16:10:15;4.10;99.90
5011;DHT22;2524;54.364;10.072;2023-01-19T16:12:42;4.00;99.90
5011;DHT22;2524;54.364;10.072;2023-01-19T16:15:08;4.00;99.90
5011;DHT22;2524;54.364;10.072;2023-01-19T16:17:34;4.00;99.90
5011;DHT22;2524;54.364;10.072;2023-01-19T16:20:04;4.00;99.90
5011;DHT22;2524;54.364;10.072;2023-01-19T16:22:30;4.00;99.90
5011;DHT22;2524;54.364;10.072;2023-01-19T16:24:56;4.00;99.90
5011;DHT22;2524;54.364;10.072;2023-01-19T16:27:22;3.90;99.90
5011;DHT22;2524;54.364;10.072;2023-01-19T16:29:48;3.90;99.90
5011;DHT22;2524;54.364;10.072;2023-01-19T16:32:14;3.90;99.90
5011;DHT22;2524;54.364;10.072;2023-01-19T16:34:39;3.90;99.90
5011;DHT22;2524;54.364;10.072;2023-01-19T16:37:05;3.90;99.90
5011;DHT22;2524;54.364;10.072;2023-01-19T16:39:31;3.90;99.90
5011;DHT22;2524;54.364;10.072;2023-01-19T16:41:56;3.80;99.90
5011;DHT22;2524;54.364;10.072;2023-01-19T16:44:22;3.90;99.90
5011;DHT22;2524;54.364;10.072;2023-01-19T16:46:49;3.80;99.90
5011;DHT22;2524;54.364;10.072;2023-01-19T16:49:18;3.80;99.90
5011;DHT22;2524;54.364;10.072;2023-01-19T16:51:44;3.80;99.90
5011;DHT22;2524;54.364;10.072;2023-01-19T16:54:13;3.70;99.90
5011;DHT22;2524;54.364;10.072;2023-01-19T16:56:38;3.70;99.90
5011;DHT22;2524;54.364;10.072;2023-01-19T16:59:04;3.70;99.90
5011;DHT22;2524;54.364;10.072;2023-01-19T17:01:30;3.80;99.90
5011;DHT22;2524;54.364;10.072;2023-01-19T17:03:55;3.70;99.90
5011;DHT22;2524;54.364;10.072;2023-01-19T17:06:22;3.70;99.90
5011;DHT22;2524;54.364;10.072;2023-01-19T17:08:49;3.60;99.90
5011;DHT22;2524;54.364;10.072;2023-01-19T17:11:23;3.60;99.90
5011;DHT22;2524;54.364;10.072;2023-01-19T17:14:02;3.60;99.90
5011;DHT22;2524;54.364;10.072;2023-01-19T17:16:29;3.60;99.90
5011;DHT22;2524;54.364;10.072;2023-01-19T17:18:56;3.60;99.90
5011;DHT22;2524;54.364;10.072;2023-01-19T17:21:23;3.60;99.90
5011;DHT22;2524;54.364;10.072;2023-01-19T17:23:50;3.60;99.90